Time;durP1;ratioP1;P1;durP2;ratioP2;P2;SDS_P1;SDS_P2;PMS_P1;PMS_P2;Temp;Humidity;BMP_temperature;BMP_pressure;BME280_temperature;BME280_humidity;BME280_pressure;Samples;Min_cycle;Max_cycle;Signal;HPM_P1;HPM_P2
2023/11/26 00:01:33;;;;;;;;;38.00;28.33;;;;;-0.87;89.37;98170.25;6280075;20;3594003;-48
2023/11/26 00:04:03;;;;;;;;;32.67;28.00;;;;;-0.64;88.18;98163.22;6282938;20;3594032;-51
2023/11/26 00:06:35;;;;;;;;;20.14;14.86;;;;;-0.59;88.12;98161.25;6317143;20;1821139;-51
2023/11/26 00:09:04;;;;;;;;;31.33;21.67;;;;;-0.97;89.45;98161.88;6311543;20;3578376;-50
2023/11/26 00:11:33;;;;;;;;;29.67;20.67;;;;;-1.04;90.56;98163.03;6311545;20;3576296;-48
2023/11/26 00:14:02;;;;;;;;;22.00;18.67;;;;;-0.74;90.94;98170.63;6313207;20;3558701;-51
2023/11/26 00:16:39;;;;;;;;;20.33;19.33;;;;;-1.03;91.04;98179.69;6314179;20;3550287;-44
2023/11/26 00:19:10;;;;;;;;;32.33;21.33;;;;;-1.62;92.60;98181.03;6335376;20;2843214;-44
2023/11/26 00:21:40;;;;;;;;;22.00;17.60;;;;;-1.74;94.53;98182.34;6302370;20;2832603;-46
2023/11/26 00:24:08;;;;;;;;;22.00;15.50;;;;;-1.45;93.89;98188.31;6281264;20;2831558;-45
2023/11/26 00:26:37;;;;;;;;;24.00;18.00;;;;;-1.38;94.34;98184.53;6282733;20;3565847;-47
2023/11/26 00:29:05;;;;;;;;;24.67;21.00;;;;;-1.06;92.63;98185.06;6311357;20;3591916;-44
2023/11/26 00:31:33;;;;;;;;;23.00;21.50;;;;;-1.19;92.89;98179.41;6280100;20;2832698;-44
2023/11/26 00:34:02;;;;;;;;;19.33;15.67;;;;;-1.65;94.10;98189.91;6278678;20;2820149;-43
2023/11/26 00:36:31;;;;;;;;;18.67;18.67;;;;;-1.47;94.42;98190.16;6308383;20;3567010;-44
2023/11/26 00:39:00;;;;;;;;;27.33;16.67;;;;;-1.48;94.80;98189.28;6310380;20;3583782;-44
2023/11/26 00:41:30;;;;;;;;;16.40;15.00;;;;;-1.40;93.99;98181.09;6336746;20;2810779;-44
2023/11/26 00:44:00;;;;;;;;;21.20;13.20;;;;;-1.38;94.65;98189.81;6304505;20;2801333;-46
2023/11/26 00:46:29;;;;;;;;;29.00;23.00;;;;;-1.27;93.75;98192.88;6281668;20;3566005;-43
2023/11/26 00:48:59;;;;;;;;;13.33;12.50;;;;;-1.28;94.24;98191.16;6351306;20;1816505;-46
2023/11/26 00:51:27;;;;;;;;;21.50;15.50;;;;;-1.37;93.98;98194.13;6280140;20;2819044;-44
2023/11/26 00:53:56;;;;;;;;;13.00;13.00;;;;;-1.41;93.53;98190.78;6299790;20;1836766;-44
2023/11/26 00:56:24;;;;;;;;;12.00;10.00;;;;;-1.39;94.18;98193.34;6309497;20;2774252;-44
2023/11/26 00:58:52;;;;;;;;;12.50;12.00;;;;;-1.43;94.16;98187.34;6310723;20;2780622;-44
2023/11/26 01:01:20;;;;;;;;;17.00;13.00;;;;;-1.40;94.27;98186.34;6275140;20;2800416;-43
2023/11/26 01:03:48;;;;;;;;;16.50;11.00;;;;;-1.36;94.93;98182.72;6285025;20;2784777;-45
2023/11/26 01:06:18;;;;;;;;;14.00;11.00;;;;;-1.24;93.86;98176.09;6283874;20;2789976;-44
2023/11/26 01:08:46;;;;;;;;;18.00;12.00;;;;;-1.07;92.19;98178.09;6285295;20;2802456;-46
2023/11/26 01:11:16;;;;;;;;;10.50;8.33;;;;;-1.12;91.53;98181.75;6318579;20;1821122;-44
2023/11/26 01:13:45;;;;;;;;;13.00;10.00;;;;;-1.00;91.81;98179.56;6299280;20;1833639;-45
2023/11/26 01:16:15;;;;;;;;;16.80;13.00;;;;;-1.38;92.08;98180.13;6340454;20;2783708;-44
2023/11/26 01:18:43;;;;;;;;;16.00;10.00;;;;;-1.61;93.76;98183.59;6284462;20;2795101;-47
2023/11/26 01:21:13;;;;;;;;;20.50;15.50;;;;;-1.78;95.51;98186.84;6287367;20;2830067;-45
2023/11/26 01:23:41;;;;;;;;;13.00;12.00;;;;;-1.45;95.74;98177.78;6300319;20;1831662;-45
2023/11/26 01:26:11;;;;;;;;;9.50;9.50;;;;;-1.51;94.57;98189.38;6303644;20;1833731;-45
2023/11/26 01:28:40;;;;;;;;;13.50;13.50;;;;;-1.90;95.98;98191.69;6335026;20;1844313;-44
2023/11/26 01:31:11;;;;;;;;;11.00;11.00;;;;;-2.03;96.04;98186.00;6315804;20;2763801;-44
2023/11/26 01:33:40;;;;;;;;;12.50;12.50;;;;;-1.89;96.73;98188.16;6331486;20;1842078;-44
2023/11/26 01:36:09;;;;;;;;;12.00;10.00;;;;;-1.97;97.62;98183.19;6314427;20;2789856;-45
2023/11/26 01:38:38;;;;;;;;;18.25;10.00;;;;;-1.84;96.98;98202.03;6300573;20;1831179;-44
2023/11/26 01:41:07;;;;;;;;;10.50;10.50;;;;;-1.87;96.80;98199.47;6333165;20;1836736;-45
2023/11/26 01:43:35;;;;;;;;;12.00;12.00;;;;;-1.80;97.33;98204.47;6311100;20;2784718;-44
2023/11/26 01:46:09;;;;;;;;;15.00;12.75;;;;;-1.78;96.69;98199.16;6303254;20;1822312;-41
2023/11/26 01:48:39;;;;;;;;;9.00;9.00;;;;;-2.04;97.57;98190.41;6313563;20;2752371;-40
2023/11/26 01:51:12;;;;;;;;;12.00;9.50;;;;;-2.03;97.48;98197.41;6315201;20;2784625;-40
2023/11/26 01:53:49;;;;;;;;;9.00;7.00;;;;;-2.16;98.34;98201.34;6282241;20;2750293;-40
2023/11/26 01:56:18;;;;;;;;;9.00;7.00;;;;;-2.08;98.28;98208.97;6311887;20;2757578;-40
2023/11/26 01:58:47;;;;;;;;;11.00;7.00;;;;;-2.26;98.06;98210.47;6315321;20;2771338;-48
2023/11/26 02:01:22;;;;;;;;;101.00;73.00;;;;;-2.91;100.00;98216.94;6282169;20;2912841;-50
2023/11/26 02:03:52;;;;;;;;;115.67;77.67;;;;;-2.95;100.00;98210.94;6313332;20;3696117;-49
2023/11/26 02:06:20;;;;;;;;;61.50;45.50;;;;;-2.44;100.00;98217.19;6278825;20;2497195;-50
2023/11/26 02:08:49;;;;;;;;;51.67;40.00;;;;;-2.25;99.24;98218.28;6283106;20;2885706;-49
2023/11/26 02:11:19;;;;;;;;;51.67;39.00;;;;;-2.32;97.70;98210.66;6313250;20;2878930;-48
2023/11/26 02:13:54;;;;;;;;;48.00;30.50;;;;;-2.61;99.21;98209.84;6312529;20;2502406;-49
2023/11/26 02:16:22;;;;;;;;;45.00;30.00;;;;;-2.29;99.72;98215.81;6282512;20;2811792;-50
2023/11/26 02:18:51;;;;;;;;;27.67;25.00;;;;;-2.32;98.24;98222.03;6282836;20;3570055;-50
2023/11/26 02:21:20;;;;;;;;;31.00;24.33;;;;;-2.63;98.93;98208.19;6284818;20;3587797;-50
2023/11/26 02:23:48;;;;;;;;;25.00;18.50;;;;;-2.14;99.06;98207.41;6285765;20;2839962;-47
2023/11/26 02:26:37;;;;;;;;;32.33;24.00;;;;;-2.18;99.09;98218.97;6285379;20;3588772;-52
2023/11/26 02:29:16;;;;;;;;;31.00;25.67;;;;;-2.51;99.08;98216.53;6282687;20;3581506;-51
2023/11/26 02:32:06;;;;;;;;;20.00;16.00;;;;;-2.03;97.45;98207.94;6301765;20;2841953;-48
2023/11/26 02:34:36;;;;;;;;;27.67;21.00;;;;;-2.41;98.23;98203.94;6285837;20;3583629;-48
2023/11/26 02:37:24;;;;;;;;;16.00;15.00;;;;;-2.79;99.56;98213.94;6281987;20;2822202;-47
2023/11/26 02:40:15;;;;;;;;;23.33;17.33;;;;;-2.76;100.00;98215.63;6284286;20;3587803;-48
2023/11/26 02:43:04;;;;;;;;;18.67;15.00;;;;;-2.34;99.34;98217.72;6312385;20;3557575;-49
2023/11/26 02:45:57;;;;;;;;;26.00;14.83;;;;;-2.27;98.72;98230.63;6336020;20;2851398;-51
2023/11/26 02:48:46;;;;;;;;;22.00;16.67;;;;;-2.70;99.80;98226.78;6313551;20;3579483;-47
2023/11/26 02:51:35;;;;;;;;;22.67;21.33;;;;;-2.74;100.00;98229.53;6312392;20;3591902;-47
2023/11/26 02:54:25;;;;;;;;;21.80;17.20;;;;;-2.63;100.00;98235.34;6305097;20;2836823;-52
2023/11/26 02:57:14;;;;;;;;;20.33;18.00;;;;;-2.99;100.00;98246.06;6279192;20;3575285;-50
2023/11/26 03:00:15;;;;;;;;;24.00;18.00;;;;;-3.48;100.00;98247.50;6313214;20;2850397;-50
2023/11/26 03:03:06;;;;;;;;;24.00;20.33;;;;;-3.48;100.00;98246.63;6310234;20;3581545;-49
2023/11/26 03:05:54;;;;;;;;;23.00;18.67;;;;;-3.27;100.00;98250.41;6311304;20;3567959;-48
2023/11/26 03:08:45;;;;;;;;;30.00;23.50;;;;;-2.90;100.00;98256.31;6309668;20;2844038;-49
2023/11/26 03:14:42;;;;;;;;;23.33;13.00;;;;;-3.62;100.00;98271.50;6309916;20;3562748;-52
2023/11/26 03:17:30;;;;;;;;;25.33;16.00;;;;;-2.76;100.00;98269.00;6309947;20;3573240;-51
2023/11/26 03:20:19;;;;;;;;;16.00;13.00;;;;;-2.51;100.00;98279.59;6310247;20;2804533;-48
2023/11/26 03:23:11;;;;;;;;;24.00;18.00;;;;;-2.54;100.00;98282.31;6334737;20;2828417;-49
2023/11/26 03:26:01;;;;;;;;;21.60;13.40;;;;;-2.11;100.00;98283.56;6333412;20;2827455;-48
2023/11/26 03:28:50;;;;;;;;;21.33;18.33;;;;;-1.92;99.44;98288.19;6280833;20;3566953;-47
2023/11/26 03:31:40;;;;;;;;;14.00;12.00;;;;;-1.96;100.00;98283.97;6312462;20;2794078;-46
2023/11/26 03:34:29;;;;;;;;;19.00;12.00;;;;;-2.04;100.00;98287.69;6282416;20;2793000;-50
2023/11/26 03:37:19;;;;;;;;;12.33;11.33;;;;;-1.79;100.00;98284.22;6352554;20;1823235;-50
2023/11/26 03:40:10;;;;;;;;;13.00;12.50;;;;;-1.69;99.16;98280.38;6281140;20;2777507;-49
2023/11/26 03:42:58;;;;;;;;;16.50;10.00;;;;;-1.84;99.43;98292.31;6280566;20;2793073;-46
2023/11/26 03:45:47;;;;;;;;;19.00;15.50;;;;;-2.30;100.00;98287.69;6280572;20;2825411;-46
2023/11/26 03:48:35;;;;;;;;;35.00;24.50;;;;;-2.87;100.00;98282.47;6282720;20;2846150;-49
2023/11/26 03:51:23;;;;;;;;;28.00;18.33;;;;;-2.85;100.00;98292.03;6283003;20;3598193;-46
2023/11/26 03:54:13;;;;;;;;;27.33;18.33;;;;;-3.62;100.00;98296.88;6313632;20;3572163;-50
2023/11/26 03:57:02;;;;;;;;;23.67;15.00;;;;;-3.76;100.00;98303.34;6311762;20;2832694;-51
2023/11/26 03:59:51;;;;;;;;;26.00;22.00;;;;;-3.75;100.00;98306.81;6312856;20;3584634;-47
2023/11/26 04:02:39;;;;;;;;;39.50;28.00;;;;;-3.50;100.00;98307.03;6307041;20;2502372;-46
2023/11/26 04:05:28;;;;;;;;;35.00;30.50;;;;;-3.16;100.00;98306.06;6279567;20;2856675;-48
2023/11/26 04:08:17;;;;;;;;;25.67;21.67;;;;;-2.78;100.00;98322.47;6281874;20;3583620;-51
2023/11/26 04:11:05;;;;;;;;;12.00;9.50;;;;;-2.46;99.34;98324.97;6278604;20;2779496;-51
2023/11/26 04:13:56;;;;;;;;;21.33;18.67;;;;;-2.82;100.00;98323.47;6304346;20;2840513;-47
2023/11/26 04:16:48;;;;;;;;;21.50;15.50;;;;;-2.29;100.00;98320.94;6310602;20;2824237;-48
2023/11/26 04:19:36;;;;;;;;;17.00;12.00;;;;;-2.06;100.00;98317.59;6281926;20;2803389;-49
2023/11/26 04:22:27;;;;;;;;;20.33;14.33;;;;;-1.69;99.79;98327.72;6281148;20;3568038;-48
2023/11/26 04:25:16;;;;;;;;;20.33;13.67;;;;;-1.56;98.34;98329.03;6309468;20;3556530;-50
2023/11/26 04:28:04;;;;;;;;;21.00;17.00;;;;;-1.38;97.51;98326.69;6311017;20;2836783;-48
2023/11/26 04:30:53;;;;;;;;;29.00;18.00;;;;;-1.34;97.66;98325.69;6278380;20;2850344;-50
2023/11/26 04:33:42;;;;;;;;;24.00;18.00;;;;;-1.49;97.89;98334.09;6280758;20;3571105;-46
2023/11/26 04:36:33;;;;;;;;;23.67;21.00;;;;;-1.37;97.55;98339.81;6332567;20;2850328;-49
2023/11/26 04:39:23;;;;;;;;;78.25;63.00;;;;;-1.24;97.17;98339.34;6312484;20;3635721;-48
2023/11/26 04:42:13;;;;;;;;;127.00;102.00;;;;;-1.26;97.44;98344.69;6309592;20;3754492;-47
2023/11/26 04:45:04;;;;;;;;;260.67;194.00;;;;;-1.12;97.40;98349.44;6274484;20;3695200;-51
2023/11/26 04:47:55;;;;;;;;;422.25;295.25;;;;;-1.02;96.64;98357.91;6279702;20;3737826;-48
2023/11/26 04:50:45;;;;;;;;;361.00;252.00;;;;;-0.97;96.21;98361.22;6277044;20;4503341;-46
2023/11/26 04:53:36;;;;;;;;;168.33;114.67;;;;;-1.06;96.27;98356.28;6311302;20;3707554;-47
2023/11/26 04:56:27;;;;;;;;;230.00;178.50;;;;;-1.12;97.07;98357.34;6279748;20;3714882;-45
2023/11/26 04:59:18;;;;;;;;;171.75;151.00;;;;;-0.94;96.54;98363.75;6309621;20;3717040;-45
2023/11/26 05:02:10;;;;;;;;;103.33;76.67;;;;;-0.84;96.95;98359.84;6275894;20;3670069;-44
2023/11/26 05:05:00;;;;;;;;;93.67;70.67;;;;;-1.03;97.08;98364.06;6309049;20;3647261;-45
2023/11/26 05:07:49;;;;;;;;;35.00;31.50;;;;;-1.01;97.38;98357.81;6311205;20;2858692;-45
2023/11/26 05:10:38;;;;;;;;;40.50;34.00;;;;;-1.01;98.45;98367.50;6279270;20;2857608;-45
2023/11/26 05:13:26;;;;;;;;;26.50;23.50;;;;;-0.85;97.61;98363.38;6281260;20;2830521;-45
2023/11/26 05:16:16;;;;;;;;;28.00;18.00;;;;;-0.80;98.00;98369.34;6278324;20;3598198;-46
2023/11/26 05:19:06;;;;;;;;;23.33;17.67;;;;;-0.81;98.12;98372.06;6308662;20;3562860;-46
2023/11/26 05:21:54;;;;;;;;;25.67;16.00;;;;;-1.01;98.48;98381.53;6307303;20;3581502;-46
2023/11/26 05:24:44;;;;;;;;;19.33;16.00;;;;;-0.81;97.88;98379.97;6309251;20;3562840;-44
2023/11/26 05:27:34;;;;;;;;;24.80;17.80;;;;;-0.70;98.05;98389.19;6331545;20;2831544;-45
2023/11/26 05:30:22;;;;;;;;;15.00;13.00;;;;;-1.03;97.82;98390.41;6278814;20;2802422;-45
2023/11/26 05:33:10;;;;;;;;;26.00;14.00;;;;;-0.44;97.20;98392.63;6275395;20;2813832;-47
2023/11/26 05:35:59;;;;;;;;;26.00;23.67;;;;;-0.34;96.71;98398.38;6275352;20;3568063;-46
2023/11/26 05:38:48;;;;;;;;;21.00;21.00;;;;;-0.41;96.08;98408.31;6309378;20;3565987;-44
2023/11/26 05:41:36;;;;;;;;;18.00;15.50;;;;;-0.41;96.47;98399.56;6309942;20;2815865;-44
2023/11/26 05:44:25;;;;;;;;;20.00;16.00;;;;;-0.58;97.04;98402.81;6277471;20;3562742;-47
2023/11/26 05:47:14;;;;;;;;;20.67;19.33;;;;;-0.56;97.16;98400.97;6308548;20;3549276;-44
2023/11/26 05:50:03;;;;;;;;;71.00;52.50;;;;;-0.49;96.97;98398.06;6315737;20;2877422;-46
2023/11/26 05:52:51;;;;;;;;;71.50;55.00;;;;;-0.50;96.62;98393.72;6276903;20;2500481;-44
2023/11/26 05:55:41;;;;;;;;;95.67;72.00;;;;;-0.37;96.51;98406.41;6284780;20;3665006;-44
2023/11/26 05:58:30;;;;;;;;;69.00;52.00;;;;;-0.42;96.70;98403.97;6313971;20;2885649;-45
2023/11/26 06:01:24;;;;;;;;;55.00;45.33;;;;;-0.33;96.50;98393.06;6279437;20;2869154;-46
2023/11/26 06:04:13;;;;;;;;;64.00;51.50;;;;;-0.16;95.98;98407.38;6313451;20;2862896;-44
2023/11/26 06:07:01;;;;;;;;;65.00;51.00;;;;;-0.25;96.46;98417.34;6279081;20;2500280;-46
2023/11/26 06:09:51;;;;;;;;;71.67;53.00;;;;;-0.02;98.27;98416.47;6283315;20;2883650;-46
2023/11/26 06:12:22;;;;;;;;;64.50;48.00;;;;;-0.01;96.13;98422.59;6315874;20;2858650;-46
2023/11/26 06:14:50;;;;;;;;;51.00;42.00;;;;;-0.07;96.24;98421.06;6281953;20;2508596;-45
2023/11/26 06:17:18;;;;;;;;;37.00;34.00;;;;;0.05;95.78;98422.34;6279832;20;2500299;-46
2023/11/26 06:19:47;;;;;;;;;31.00;27.00;;;;;0.19;94.93;98424.47;6282571;20;3575238;-44
2023/11/26 06:22:15;;;;;;;;;33.50;25.50;;;;;0.12;95.36;98421.19;6312220;20;2500344;-44
2023/11/26 06:24:45;;;;;;;;;24.67;19.00;;;;;0.32;94.95;98427.47;6283494;20;2822372;-45
2023/11/26 06:27:15;;;;;;;;;26.33;21.33;;;;;0.27;94.69;98418.88;6314536;20;3560723;-44
2023/11/26 06:29:44;;;;;;;;;32.33;19.67;;;;;0.52;95.06;98435.44;6315200;20;3578418;-45
2023/11/26 06:32:13;;;;;;;;;33.00;28.00;;;;;0.14;94.41;98419.38;6280709;20;3587798;-45
2023/11/26 06:34:42;;;;;;;;;33.67;27.33;;;;;0.64;94.25;98418.22;6283669;20;3574715;-44
2023/11/26 06:37:12;;;;;;;;;20.20;16.80;;;;;0.38;94.29;98417.50;6296921;20;2815983;-45
2023/11/26 06:39:41;;;;;;;;;54.00;45.00;;;;;0.69;94.04;98428.59;6278291;20;2502370;-43
2023/11/26 06:42:10;;;;;;;;;57.00;46.00;;;;;0.39;94.51;98423.66;6281968;20;2672642;-44
2023/11/26 06:44:38;;;;;;;;;38.00;25.50;;;;;0.55;94.50;98424.72;6312097;20;2500734;-44
2023/11/26 06:47:07;;;;;;;;;52.00;42.00;;;;;0.78;93.52;98425.56;6281689;20;2866930;-46
2023/11/26 06:49:36;;;;;;;;;46.00;42.00;;;;;0.46;94.56;98427.75;6279836;20;2857598;-43
2023/11/26 06:52:06;;;;;;;;;31.00;24.00;;;;;0.72;93.70;98426.69;6279130;20;3567019;-44
2023/11/26 06:54:34;;;;;;;;;23.00;18.50;;;;;0.91;92.44;98433.84;6317147;20;2819052;-44
2023/11/26 06:57:03;;;;;;;;;19.00;15.00;;;;;0.98;92.05;98436.16;6282911;20;2797401;-44
2023/11/26 06:59:36;;;;;;;;;17.57;15.43;;;;;1.00;92.00;98447.53;6347184;20;1823255;-45
2023/11/26 07:02:09;;;;;;;;;14.67;14.67;;;;;1.13;92.41;98447.81;6312278;20;2789852;-46
2023/11/26 07:04:38;;;;;;;;;19.00;16.00;;;;;1.31;91.89;98440.88;6317280;20;2824356;-45
2023/11/26 07:07:07;;;;;;;;;25.33;18.67;;;;;1.01;91.76;98454.50;6276614;20;3571085;-47
2023/11/26 07:09:36;;;;;;;;;19.33;16.67;;;;;1.36;92.49;98444.19;6313981;20;3567961;-46
2023/11/26 07:12:08;;;;;;;;;23.00;17.80;;;;;1.07;91.49;98446.31;6332888;20;2814837;-45
2023/11/26 07:14:36;;;;;;;;;16.50;11.00;;;;;1.35;91.26;98455.69;6278992;20;2790908;-44
2023/11/26 07:17:07;;;;;;;;;14.40;13.20;;;;;1.64;91.26;98459.69;6301758;20;2814846;-45
2023/11/26 07:19:35;;;;;;;;;20.50;15.00;;;;;1.34;90.46;98459.25;6281347;20;2825285;-46
2023/11/26 07:22:05;;;;;;;;;18.00;13.00;;;;;1.23;90.20;98458.88;6277640;20;2798352;-46
2023/11/26 07:24:33;;;;;;;;;16.00;15.00;;;;;1.38;90.09;98458.19;6315339;20;2813961;-46
2023/11/26 07:27:02;;;;;;;;;26.33;20.67;;;;;1.60;88.98;98473.13;6280373;20;3565913;-45
2023/11/26 07:29:34;;;;;;;;;19.67;16.00;;;;;1.63;88.74;98473.81;6299482;20;3551417;-46
2023/11/26 07:32:05;;;;;;;;;18.40;15.20;;;;;1.54;89.04;98475.09;6336579;20;2793023;-45
2023/11/26 07:34:34;;;;;;;;;22.00;18.67;;;;;1.53;88.98;98477.84;6281403;20;3567229;-46
2023/11/26 07:37:02;;;;;;;;;25.00;19.00;;;;;1.61;88.80;98480.16;6312427;20;2819209;-45
2023/11/26 07:39:33;;;;;;;;;22.33;19.67;;;;;1.53;89.69;98483.97;6280199;20;3564869;-46
2023/11/26 07:42:02;;;;;;;;;26.33;20.67;;;;;1.64;89.38;98475.56;6310566;20;3559669;-44
2023/11/26 07:44:31;;;;;;;;;24.00;16.33;;;;;1.55;90.10;98489.19;6312049;20;3583584;-44
2023/11/26 07:47:02;;;;;;;;;23.50;20.00;;;;;1.53;89.59;98488.41;6275619;20;2818126;-45
2023/11/26 07:49:32;;;;;;;;;27.00;20.00;;;;;1.52;90.40;98498.13;6282312;20;3547140;-46
2023/11/26 07:52:00;;;;;;;;;15.50;13.00;;;;;1.73;89.92;98491.00;6311586;20;2794032;-46
2023/11/26 07:54:29;;;;;;;;;24.00;24.00;;;;;1.67;89.79;98490.44;6278582;20;3571082;-45
2023/11/26 07:56:58;;;;;;;;;20.00;18.00;;;;;1.62;90.65;98492.44;6282445;20;2831525;-45
2023/11/26 07:59:29;;;;;;;;;25.33;21.33;;;;;1.93;89.71;98487.47;6280412;20;3572152;-44
2023/11/26 08:01:58;;;;;;;;;24.50;20.00;;;;;2.10;88.54;98493.75;6279870;20;2839869;-46
2023/11/26 08:04:28;;;;;;;;;21.00;19.00;;;;;2.34;87.99;98497.03;6284089;20;2830547;-48
2023/11/26 08:06:56;;;;;;;;;20.00;18.00;;;;;2.46;87.26;98500.91;6280606;20;2835802;-44
2023/11/26 08:09:25;;;;;;;;;21.00;19.33;;;;;3.05;85.42;98495.34;6278895;20;3550278;-46
2023/11/26 08:12:17;;;;;;;;;29.67;21.67;;;;;2.65;84.63;98493.78;6305373;20;3582653;-44
2023/11/26 08:14:45;;;;;;;;;33.00;24.00;;;;;2.90;84.19;98495.22;6279453;20;2500300;-44
2023/11/26 08:17:15;;;;;;;;;26.67;22.67;;;;;2.80;84.18;98494.84;6280091;20;3570209;-44
2023/11/26 08:19:45;;;;;;;;;24.50;24.00;;;;;3.04;83.24;98492.75;6310133;20;2835753;-45
2023/11/26 08:22:15;;;;;;;;;26.00;24.00;;;;;3.24;82.37;98505.03;6277524;20;3579671;-44
2023/11/26 08:24:52;;;;;;;;;24.00;22.67;;;;;3.21;82.17;98500.75;6281968;20;3571146;-44
2023/11/26 08:27:23;;;;;;;;;18.00;14.00;;;;;3.16;81.03;98497.47;6279090;20;2811815;-45
2023/11/26 08:29:53;;;;;;;;;15.33;14.00;;;;;3.18;80.55;98498.22;6276823;20;3542225;-46
2023/11/26 08:32:24;;;;;;;;;16.00;14.00;;;;;3.06;81.43;98504.16;6311071;20;2703422;-47
2023/11/26 08:34:55;;;;;;;;;14.00;11.00;;;;;3.29;80.22;98514.47;6280439;20;2783641;-44
2023/11/26 08:37:25;;;;;;;;;16.67;15.33;;;;;3.52;79.89;98523.03;6294758;20;3547270;-43
2023/11/26 08:39:54;;;;;;;;;16.00;16.00;;;;;3.50;81.60;98522.25;6314294;20;2827394;-47
2023/11/26 08:42:23;;;;;;;;;8.50;5.50;;;;;3.81;80.05;98521.50;6301777;20;1816382;-44
2023/11/26 08:44:56;;;;;;;;;55.33;40.33;;;;;4.12;79.40;98525.19;6313780;20;3639963;-44
2023/11/26 08:47:28;;;;;;;;;26.50;19.50;;;;;3.93;79.09;98535.94;6310850;20;2832630;-44
2023/11/26 08:49:57;;;;;;;;;48.50;38.50;;;;;4.04;78.60;98532.72;6281250;20;2865917;-47
2023/11/26 08:52:28;;;;;;;;;20.60;14.80;;;;;4.21;80.24;98531.78;6303838;20;2835785;-45
2023/11/26 08:54:57;;;;;;;;;17.33;16.00;;;;;3.93;78.48;98527.97;6282191;20;3562765;-45
2023/11/26 08:57:25;;;;;;;;;21.00;14.00;;;;;4.10;77.48;98538.53;6314732;20;2805512;-44
2023/11/26 08:59:54;;;;;;;;;22.33;20.33;;;;;3.95;77.15;98547.34;6283013;20;3555511;-47
2023/11/26 09:02:25;;;;;;;;;37.00;28.50;;;;;4.18;76.68;98543.44;6279951;20;2854480;-46
2023/11/26 09:04:54;;;;;;;;;44.33;34.33;;;;;4.37;75.82;98545.94;6280347;20;2880605;-43
2023/11/26 09:07:23;;;;;;;;;13.00;12.00;;;;;4.22;74.29;98544.16;6308702;20;2787906;-44
2023/11/26 09:09:51;;;;;;;;;24.00;16.50;;;;;4.01;73.81;98538.19;6284945;20;2819077;-43
2023/11/26 09:12:22;;;;;;;;;18.50;15.00;;;;;4.37;72.57;98545.94;6281954;20;2829427;-44
2023/11/26 09:14:54;;;;;;;;;11.00;10.50;;;;;4.04;72.44;98549.50;6285093;20;2775433;-46
2023/11/26 09:17:24;;;;;;;;;14.67;13.67;;;;;3.93;73.15;98552.72;6279054;20;3547260;-44
2023/11/26 09:19:53;;;;;;;;;11.60;10.20;;;;;4.25;73.15;98551.94;6334553;20;2794067;-45
2023/11/26 09:22:21;;;;;;;;;12.00;11.00;;;;;3.81;73.08;98533.94;6279253;20;2789856;-44
2023/11/26 09:24:49;;;;;;;;;11.50;7.00;;;;;3.97;74.22;98553.41;6288770;20;2769034;-46
2023/11/26 09:27:18;;;;;;;;;12.00;12.00;;;;;3.96;74.57;98541.94;6287241;20;2794041;-46
2023/11/26 09:29:46;;;;;;;;;12.00;10.50;;;;;4.10;74.31;98549.16;6285116;20;2771121;-44
2023/11/26 09:32:14;;;;;;;;;14.00;14.00;;;;;4.21;75.07;98539.75;6285491;20;2797219;-47
2023/11/26 09:34:42;;;;;;;;;16.00;15.00;;;;;4.37;74.89;98551.25;6287389;20;2819163;-44
2023/11/26 09:37:12;;;;;;;;;22.33;18.67;;;;;4.99;71.80;98544.25;6284292;20;3552353;-45
2023/11/26 09:39:40;;;;;;;;;13.00;12.00;;;;;4.68;72.41;98541.59;6285880;20;2797175;-46
2023/11/26 09:42:12;;;;;;;;;24.00;21.50;;;;;4.85;72.16;98541.53;6286071;20;2836747;-44
2023/11/26 09:44:45;;;;;;;;;23.50;22.50;;;;;4.85;70.20;98528.22;6284306;20;2498333;-44
2023/11/26 09:47:17;;;;;;;;;17.00;14.80;;;;;4.67;71.25;98537.25;6307993;20;2820289;-44
2023/11/26 09:49:49;;;;;;;;;17.67;14.00;;;;;4.98;70.59;98545.19;6282863;20;3536920;-47
2023/11/26 09:52:19;;;;;;;;;12.50;12.00;;;;;4.76;70.66;98534.91;6282377;20;2803430;-48
2023/11/26 09:54:49;;;;;;;;;18.00;16.50;;;;;5.09;69.72;98544.59;6283921;20;2812860;-45
2023/11/26 09:57:17;;;;;;;;;18.00;13.00;;;;;5.15;69.06;98548.69;6285739;20;2802470;-45
2023/11/26 09:59:48;;;;;;;;;20.33;15.67;;;;;5.45;69.05;98554.88;6284895;20;3561794;-46
2023/11/26 10:02:16;;;;;;;;;25.50;17.50;;;;;5.63;66.92;98565.38;6313863;20;2838830;-44
2023/11/26 10:04:51;;;;;;;;;15.00;15.00;;;;;5.03;67.79;98560.91;6285727;20;3532584;-45
2023/11/26 10:07:37;;;;;;;;;19.00;14.00;;;;;4.97;69.85;98577.19;6317996;20;2817033;-48
2023/11/26 10:10:09;;;;;;;;;15.20;12.60;;;;;4.88;70.57;98577.72;6306676;20;2786763;-43
2023/11/26 10:13:12;;;;;;;;;20.60;16.20;;;;;4.50;71.05;98578.91;6307336;20;2823214;-44
2023/11/26 10:15:42;;;;;;;;;23.00;18.67;;;;;4.51;70.60;98583.28;6281057;20;3557537;-44
2023/11/26 10:18:13;;;;;;;;;14.33;14.33;;;;;4.54;70.48;98591.06;6282307;20;3542980;-41
2023/11/26 10:20:45;;;;;;;;;13.50;10.00;;;;;4.38;70.71;98596.38;6316747;20;2775268;-44
2023/11/26 10:23:16;;;;;;;;;20.50;11.00;;;;;4.50;70.78;98593.97;6285933;20;2809858;-42
2023/11/26 10:25:46;;;;;;;;;18.00;11.00;;;;;4.45;71.85;98602.22;6286525;20;2803372;-42
2023/11/26 10:28:17;;;;;;;;;21.00;17.00;;;;;4.92;70.57;98606.69;6281594;20;3572255;-42
2023/11/26 10:30:47;;;;;;;;;12.60;12.00;;;;;4.50;71.76;98621.44;6338782;20;2800455;-41
2023/11/26 10:33:17;;;;;;;;;13.00;12.00;;;;;4.56;73.16;98607.81;6285395;20;2802388;-42
2023/11/26 10:35:56;;;;;;;;;20.67;19.67;;;;;4.65;71.55;98613.56;6311790;20;3554530;-41
2023/11/26 10:38:34;;;;;;;;;19.33;14.33;;;;;4.36;72.06;98619.50;6280516;20;3558996;-44
2023/11/26 10:41:03;;;;;;;;;26.00;16.33;;;;;4.21;72.40;98627.44;6315106;20;3580521;-42
2023/11/26 10:43:35;;;;;;;;;11.60;11.20;;;;;4.47;71.58;98629.56;6309420;20;2791971;-43
2023/11/26 10:46:15;;;;;;;;;24.50;18.50;;;;;4.73;70.76;98630.78;6280342;20;2491919;-41
2023/11/26 10:48:59;;;;;;;;;29.00;24.50;;;;;4.46;70.46;98624.34;6281257;20;2856590;-41
2023/11/26 10:51:31;;;;;;;;;32.50;26.00;;;;;4.06;72.04;98642.38;6281524;20;2861839;-44
2023/11/26 10:54:10;;;;;;;;;26.00;16.50;;;;;4.15;72.24;98647.19;6282938;20;2841947;-42
2023/11/26 10:56:43;;;;;;;;;22.50;21.00;;;;;4.07;72.30;98642.28;6281870;20;2498305;-43
2023/11/26 10:59:19;;;;;;;;;17.67;14.33;;;;;4.37;71.13;98645.16;6285934;20;3550268;-43
2023/11/26 11:01:49;;;;;;;;;13.60;11.00;;;;;4.40;70.55;98657.41;6338695;20;2784731;-43
2023/11/26 11:04:21;;;;;;;;;11.50;10.00;;;;;4.12;70.88;98653.53;6283845;20;2773270;-44
2023/11/26 11:06:49;;;;;;;;;21.00;19.50;;;;;4.50;70.61;98641.81;6282480;20;2829593;-44
2023/11/26 11:09:47;;;;;;;;;19.67;16.33;;;;;4.46;69.99;98662.41;6282029;20;3556528;-46
2023/11/26 11:12:23;;;;;;;;;21.33;20.33;;;;;4.50;68.83;98661.31;6312715;20;3556571;-44
2023/11/26 11:14:54;;;;;;;;;11.00;11.00;;;;;4.66;70.94;98657.81;6280099;20;2796195;-44
2023/11/26 11:17:30;;;;;;;;;16.50;13.00;;;;;4.92;67.90;98667.03;6314253;20;2812864;-43
2023/11/26 11:19:58;;;;;;;;;12.00;8.00;;;;;4.49;67.32;98675.53;6282882;20;2767020;-42
2023/11/26 11:22:45;;;;;;;;;10.00;10.00;;;;;4.24;66.99;98667.09;6282891;20;2761744;-45
2023/11/26 11:25:17;;;;;;;;;7.00;7.00;;;;;4.21;65.89;98661.97;6287021;20;2732594;-43
2023/11/26 11:27:59;;;;;;;;;10.25;8.25;;;;;4.25;65.15;98680.31;6333997;20;1805566;-46
2023/11/26 11:30:35;;;;;;;;;8.00;6.50;;;;;4.34;64.61;98673.66;6315298;20;2737789;-45
2023/11/26 11:33:09;;;;;;;;;11.00;7.00;;;;;4.54;62.23;98683.25;6313133;20;2763935;-45
2023/11/26 11:35:49;;;;;;;;;6.00;6.00;;;;;4.85;59.19;98690.44;6284254;20;2743015;-44
2023/11/26 11:38:18;;;;;;;;;17.00;13.00;;;;;4.87;59.45;98683.25;6281630;20;2810704;-44
2023/11/26 11:41:11;;;;;;;;;12.00;8.00;;;;;4.62;60.64;98687.22;6282693;20;2763801;-42
2023/11/26 11:43:45;;;;;;;;;10.00;8.00;;;;;4.96;60.28;98693.38;6279661;20;2749282;-47
2023/11/26 11:46:28;;;;;;;;;12.00;11.00;;;;;4.80;60.22;98700.47;6276445;20;2796121;-43
2023/11/26 11:49:00;;;;;;;;;7.83;7.83;;;;;4.77;60.90;98696.19;6326918;20;1804472;-44